sensor_id;sensor_type;location;lat;lon;timestamp;pressure;altitude;pressure_sealevel;temperature;humidity
5879;BME280;2965;42.640;23.370;2023-04-07T04:01:08;94197.22;;;2.71;69.00
5879;BME280;2965;42.640;23.370;2023-04-07T04:03:34;94201.13;;;2.75;68.67
5879;BME280;2965;42.640;23.370;2023-04-07T04:05:59;94207.56;;;2.71;68.62
5879;BME280;2965;42.640;23.370;2023-04-07T04:08:26;94213.19;;;2.57;68.69
5879;BME280;2965;42.640;23.370;2023-04-07T04:10:51;94209.38;;;2.61;69.52
5879;BME280;2965;42.640;23.370;2023-04-07T04:13:16;94205.66;;;2.64;71.24
5879;BME280;2965;42.640;23.370;2023-04-07T04:15:42;94208.97;;;2.56;70.76
5879;BME280;2965;42.640;23.370;2023-04-07T04:18:07;94208.19;;;2.46;71.04
5879;BME280;2965;42.640;23.370;2023-04-07T04:20:33;94213.63;;;2.43;71.54
5879;BME280;2965;42.640;23.370;2023-04-07T04:22:58;94219.88;;;2.50;72.24
5879;BME280;2965;42.640;23.370;2023-04-07T04:25:24;94220.94;;;2.57;71.65
5879;BME280;2965;42.640;23.370;2023-04-07T04:27:49;94220.81;;;2.49;72.13
5879;BME280;2965;42.640;23.370;2023-04-07T04:30:15;94223.91;;;2.62;73.55
5879;BME280;2965;42.640;23.370;2023-04-07T04:32:40;94219.22;;;2.75;74.06
5879;BME280;2965;42.640;23.370;2023-04-07T04:35:06;94217.03;;;2.81;76.37
5879;BME280;2965;42.640;23.370;2023-04-07T04:37:31;94222.19;;;2.81;76.63
5879;BME280;2965;42.640;23.370;2023-04-07T04:39:57;94223.38;;;2.86;79.01
5879;BME280;2965;42.640;23.370;2023-04-07T04:42:22;94229.25;;;2.78;79.67
5879;BME280;2965;42.640;23.370;2023-04-07T04:44:47;94233.88;;;2.85;81.73
5879;BME280;2965;42.640;23.370;2023-04-07T04:47:13;94232.69;;;2.69;85.91
5879;BME280;2965;42.640;23.370;2023-04-07T04:49:38;94233.16;;;2.55;85.88
5879;BME280;2965;42.640;23.370;2023-04-07T04:52:04;94240.38;;;2.51;85.20
5879;BME280;2965;42.640;23.370;2023-04-07T04:54:29;94236.97;;;2.51;86.52
5879;BME280;2965;42.640;23.370;2023-04-07T04:56:54;94232.13;;;2.48;86.45
5879;BME280;2965;42.640;23.370;2023-04-07T04:59:22;94242.97;;;2.42;85.26
5879;BME280;2965;42.640;23.370;2023-04-07T05:01:47;94250.56;;;2.43;84.07
5879;BME280;2965;42.640;23.370;2023-04-07T05:04:13;94243.50;;;2.55;83.97
5879;BME280;2965;42.640;23.370;2023-04-07T05:06:38;94247.81;;;2.64;82.78
5879;BME280;2965;42.640;23.370;2023-04-07T05:09:03;94247.03;;;2.54;79.94
5879;BME280;2965;42.640;23.370;2023-04-07T05:11:28;94246.53;;;2.41;80.11
5879;BME280;2965;42.640;23.370;2023-04-07T05:13:54;94256.28;;;2.47;80.70
5879;BME280;2965;42.640;23.370;2023-04-07T05:16:20;94249.50;;;2.46;81.31
5879;BME280;2965;42.640;23.370;2023-04-07T05:18:45;94256.47;;;2.36;83.73
5879;BME280;2965;42.640;23.370;2023-04-07T05:21:10;94254.41;;;2.30;86.60
5879;BME280;2965;42.640;23.370;2023-04-07T05:23:36;94265.56;;;2.20;91.99
5879;BME280;2965;42.640;23.370;2023-04-07T05:26:01;94264.09;;;2.27;94.33
5879;BME280;2965;42.640;23.370;2023-04-07T05:28:26;94262.72;;;2.23;97.53
5879;BME280;2965;42.640;23.370;2023-04-07T05:30:52;94267.22;;;2.21;99.43
5879;BME280;2965;42.640;23.370;2023-04-07T05:33:17;94268.84;;;2.22;100.00
5879;BME280;2965;42.640;23.370;2023-04-07T05:35:43;94271.56;;;2.31;100.00
5879;BME280;2965;42.640;23.370;2023-04-07T05:38:10;94266.41;;;2.31;100.00
5879;BME280;2965;42.640;23.370;2023-04-07T05:40:35;94261.41;;;2.57;100.00
5879;BME280;2965;42.640;23.370;2023-04-07T05:43:01;94261.41;;;2.66;99.50
5879;BME280;2965;42.640;23.370;2023-04-07T05:45:26;94268.09;;;2.87;95.87
5879;BME280;2965;42.640;23.370;2023-04-07T05:47:51;94262.09;;;2.96;95.43
5879;BME280;2965;42.640;23.370;2023-04-07T05:50:17;94262.94;;;2.87;95.48
5879;BME280;2965;42.640;23.370;2023-04-07T05:52:42;94261.31;;;2.86;94.97
5879;BME280;2965;42.640;23.370;2023-04-07T05:55:08;94270.03;;;2.85;92.81
5879;BME280;2965;42.640;23.370;2023-04-07T05:57:34;94268.59;;;3.00;91.63
5879;BME280;2965;42.640;23.370;2023-04-07T05:59:59;94266.38;;;3.05;92.27
5879;BME280;2965;42.640;23.370;2023-04-07T06:02:25;94268.41;;;3.11;90.90
5879;BME280;2965;42.640;23.370;2023-04-07T06:04:50;94267.72;;;3.19;86.79
5879;BME280;2965;42.640;23.370;2023-04-07T06:07:16;94273.69;;;3.19;85.17
5879;BME280;2965;42.640;23.370;2023-04-07T06:09:41;94269.38;;;3.10;86.01
5879;BME280;2965;42.640;23.370;2023-04-07T06:12:07;94263.91;;;3.13;86.33
5879;BME280;2965;42.640;23.370;2023-04-07T06:14:33;94271.84;;;3.29;87.25
5879;BME280;2965;42.640;23.370;2023-04-07T06:16:59;94271.88;;;3.47;86.83
5879;BME280;2965;42.640;23.370;2023-04-07T06:19:24;94269.09;;;3.59;85.95
5879;BME280;2965;42.640;23.370;2023-04-07T06:21:51;94275.22;;;3.75;86.32
5879;BME280;2965;42.640;23.370;2023-04-07T06:24:17;94274.66;;;3.82;85.04
5879;BME280;2965;42.640;23.370;2023-04-07T06:26:43;94262.38;;;3.84;85.13
5879;BME280;2965;42.640;23.370;2023-04-07T06:29:09;94271.09;;;3.83;83.96
5879;BME280;2965;42.640;23.370;2023-04-07T06:31:34;94263.34;;;3.83;83.96
5879;BME280;2965;42.640;23.370;2023-04-07T06:34:00;94269.59;;;3.98;81.78
5879;BME280;2965;42.640;23.370;2023-04-07T06:36:25;94263.84;;;4.04;81.28
5879;BME280;2965;42.640;23.370;2023-04-07T06:38:51;94260.00;;;4.08;81.44
5879;BME280;2965;42.640;23.370;2023-04-07T06:41:17;94261.22;;;4.22;81.17
5879;BME280;2965;42.640;23.370;2023-04-07T06:43:43;94271.25;;;4.25;79.69
5879;BME280;2965;42.640;23.370;2023-04-07T06:46:09;94265.59;;;4.21;79.86
5879;BME280;2965;42.640;23.370;2023-04-07T06:48:34;94264.91;;;4.19;79.45
5879;BME280;2965;42.640;23.370;2023-04-07T06:50:59;94257.91;;;4.29;80.80
5879;BME280;2965;42.640;23.370;2023-04-07T06:53:25;94261.25;;;4.48;80.90
5879;BME280;2965;42.640;23.370;2023-04-07T06:55:50;94261.84;;;4.68;81.16
5879;BME280;2965;42.640;23.370;2023-04-07T06:58:16;94262.06;;;4.74;77.94
5879;BME280;2965;42.640;23.370;2023-04-07T07:00:41;94274.97;;;4.66;77.48
5879;BME280;2965;42.640;23.370;2023-04-07T07:03:07;94275.72;;;4.85;78.41
5879;BME280;2965;42.640;23.370;2023-04-07T07:05:32;94271.00;;;4.80;75.10
5879;BME280;2965;42.640;23.370;2023-04-07T07:07:57;94270.81;;;4.81;74.67
5879;BME280;2965;42.640;23.370;2023-04-07T07:10:23;94272.19;;;4.94;75.71
5879;BME280;2965;42.640;23.370;2023-04-07T07:12:49;94274.81;;;5.02;75.04
5879;BME280;2965;42.640;23.370;2023-04-07T07:15:15;94270.69;;;5.25;73.04
5879;BME280;2965;42.640;23.370;2023-04-07T07:17:40;94271.03;;;5.30;73.09
5879;BME280;2965;42.640;23.370;2023-04-07T07:20:06;94281.44;;;5.39;75.27
5879;BME280;2965;42.640;23.370;2023-04-07T11:20:18;94325.25;;;7.54;56.15
5879;BME280;2965;42.640;23.370;2023-04-07T11:22:58;94329.03;;;7.82;58.57
5879;BME280;2965;42.640;23.370;2023-04-07T11:25:24;94318.78;;;7.81;57.12
5879;BME280;2965;42.640;23.370;2023-04-07T11:27:51;94325.38;;;7.92;56.97
5879;BME280;2965;42.640;23.370;2023-04-07T11:30:17;94327.41;;;8.13;58.18
5879;BME280;2965;42.640;23.370;2023-04-07T11:32:47;94331.81;;;8.12;56.52
5879;BME280;2965;42.640;23.370;2023-04-07T11:35:12;94334.97;;;7.99;56.90
5879;BME280;2965;42.640;23.370;2023-04-07T11:37:37;94315.38;;;7.80;55.04
5879;BME280;2965;42.640;23.370;2023-04-07T11:40:03;94336.03;;;8.13;57.33
5879;BME280;2965;42.640;23.370;2023-04-07T11:42:37;94332.25;;;7.93;55.02
5879;BME280;2965;42.640;23.370;2023-04-07T11:45:04;94327.63;;;8.26;58.34
5879;BME280;2965;42.640;23.370;2023-04-07T11:47:34;94324.44;;;8.47;57.74
5879;BME280;2965;42.640;23.370;2023-04-07T11:50:00;94322.19;;;8.58;57.54
5879;BME280;2965;42.640;23.370;2023-04-07T11:52:25;94319.22;;;8.47;55.33
5879;BME280;2965;42.640;23.370;2023-04-07T11:54:51;94331.81;;;8.58;57.74
5879;BME280;2965;42.640;23.370;2023-04-07T11:57:24;94322.16;;;8.44;57.72
5879;BME280;2965;42.640;23.370;2023-04-07T11:59:50;94330.69;;;8.38;56.65
5879;BME280;2965;42.640;23.370;2023-04-07T12:02:30;94318.50;;;8.53;57.69
5879;BME280;2965;42.640;23.370;2023-04-07T12:04:56;94320.34;;;8.67;57.07
5879;BME280;2965;42.640;23.370;2023-04-07T12:07:21;94322.78;;;8.69;56.74
5879;BME280;2965;42.640;23.370;2023-04-07T12:09:47;94316.50;;;8.78;57.14
5879;BME280;2965;42.640;23.370;2023-04-07T12:12:13;94317.31;;;8.78;57.45
5879;BME280;2965;42.640;23.370;2023-04-07T12:14:38;94327.03;;;8.84;59.51
5879;BME280;2965;42.640;23.370;2023-04-07T12:17:04;94320.25;;;9.13;56.82
5879;BME280;2965;42.640;23.370;2023-04-07T12:19:31;94325.47;;;9.13;57.48
5879;BME280;2965;42.640;23.370;2023-04-07T12:21:59;94334.84;;;9.22;56.65
5879;BME280;2965;42.640;23.370;2023-04-07T12:24:25;94326.75;;;9.17;56.34
5879;BME280;2965;42.640;23.370;2023-04-07T12:26:51;94323.66;;;9.58;59.38
5879;BME280;2965;42.640;23.370;2023-04-07T12:29:17;94326.97;;;9.81;59.27
5879;BME280;2965;42.640;23.370;2023-04-07T12:31:44;94329.81;;;9.65;55.73
5879;BME280;2965;42.640;23.370;2023-04-07T12:34:09;94328.19;;;9.34;56.75
5879;BME280;2965;42.640;23.370;2023-04-07T12:36:35;94329.16;;;9.04;56.13
5879;BME280;2965;42.640;23.370;2023-04-07T12:39:00;94334.44;;;8.96;57.24
5879;BME280;2965;42.640;23.370;2023-04-07T12:41:25;94328.69;;;8.86;57.28
5879;BME280;2965;42.640;23.370;2023-04-07T12:43:51;94332.09;;;8.86;57.06
5879;BME280;2965;42.640;23.370;2023-04-07T12:46:18;94322.94;;;9.05;59.14
5879;BME280;2965;42.640;23.370;2023-04-07T12:48:43;94324.19;;;8.94;57.75
5879;BME280;2965;42.640;23.370;2023-04-07T12:51:09;94333.91;;;9.15;58.39
5879;BME280;2965;42.640;23.370;2023-04-07T12:53:34;94321.31;;;9.04;58.51
5879;BME280;2965;42.640;23.370;2023-04-07T12:56:00;94331.91;;;8.88;56.77
5879;BME280;2965;42.640;23.370;2023-04-07T12:58:25;94327.78;;;8.93;57.74
5879;BME280;2965;42.640;23.370;2023-04-07T13:00:51;94326.81;;;9.09;56.75
5879;BME280;2965;42.640;23.370;2023-04-07T13:03:17;94338.03;;;8.95;56.42
5879;BME280;2965;42.640;23.370;2023-04-07T13:05:43;94339.78;;;8.79;56.19
5879;BME280;2965;42.640;23.370;2023-04-07T13:08:08;94338.31;;;8.62;58.00
5879;BME280;2965;42.640;23.370;2023-04-07T13:10:34;94333.25;;;8.46;57.63
5879;BME280;2965;42.640;23.370;2023-04-07T13:13:00;94341.91;;;8.61;56.64
5879;BME280;2965;42.640;23.370;2023-04-07T13:15:25;94335.63;;;8.70;58.52
5879;BME280;2965;42.640;23.370;2023-04-07T13:17:52;94332.09;;;8.63;59.91
5879;BME280;2965;42.640;23.370;2023-04-07T13:20:17;94338.19;;;8.32;59.57
5879;BME280;2965;42.640;23.370;2023-04-07T13:22:43;94336.81;;;8.45;59.67
5879;BME280;2965;42.640;23.370;2023-04-07T13:25:08;94339.13;;;8.40;59.89
5879;BME280;2965;42.640;23.370;2023-04-07T13:27:33;94342.81;;;8.45;59.67
5879;BME280;2965;42.640;23.370;2023-04-07T13:29:59;94338.75;;;8.20;58.71
5879;BME280;2965;42.640;23.370;2023-04-07T13:32:25;94344.78;;;8.20;61.39
5879;BME280;2965;42.640;23.370;2023-04-07T13:34:51;94340.25;;;8.14;61.38
5879;BME280;2965;42.640;23.370;2023-04-07T13:37:17;94345.63;;;8.13;60.55
5879;BME280;2965;42.640;23.370;2023-04-07T13:39:43;94344.88;;;8.04;59.40
5879;BME280;2965;42.640;23.370;2023-04-07T13:42:09;94345.13;;;8.17;61.28
5879;BME280;2965;42.640;23.370;2023-04-07T13:44:34;94343.47;;;7.93;63.72
5879;BME280;2965;42.640;23.370;2023-04-07T13:47:01;94349.81;;;7.91;62.74
5879;BME280;2965;42.640;23.370;2023-04-07T13:49:27;94353.41;;;7.90;62.41
5879;BME280;2965;42.640;23.370;2023-04-07T13:51:53;94358.69;;;7.73;64.79
5879;BME280;2965;42.640;23.370;2023-04-07T13:54:18;94362.59;;;7.69;62.23
5879;BME280;2965;42.640;23.370;2023-04-07T13:56:44;94363.78;;;7.67;63.35
5879;BME280;2965;42.640;23.370;2023-04-07T13:59:09;94363.97;;;7.57;62.99
5879;BME280;2965;42.640;23.370;2023-04-07T14:01:35;94366.31;;;7.44;63.75
5879;BME280;2965;42.640;23.370;2023-04-07T14:04:03;94366.66;;;7.32;65.12
5879;BME280;2965;42.640;23.370;2023-04-07T14:06:29;94380.63;;;7.40;65.35
5879;BME280;2965;42.640;23.370;2023-04-07T14:08:56;94382.38;;;7.39;65.21
5879;BME280;2965;42.640;23.370;2023-04-07T14:11:22;94385.84;;;7.31;66.19
5879;BME280;2965;42.640;23.370;2023-04-07T14:13:48;94381.63;;;7.22;67.31
5879;BME280;2965;42.640;23.370;2023-04-07T14:16:14;94385.69;;;7.25;67.29
5879;BME280;2965;42.640;23.370;2023-04-07T14:18:39;94386.50;;;7.25;68.32
5879;BME280;2965;42.640;23.370;2023-04-07T14:21:05;94388.78;;;7.20;68.83
5879;BME280;2965;42.640;23.370;2023-04-07T14:23:31;94388.66;;;7.14;67.92
5879;BME280;2965;42.640;23.370;2023-04-07T14:25:59;94394.97;;;7.11;68.87
5879;BME280;2965;42.640;23.370;2023-04-07T14:28:26;94396.44;;;7.22;71.65
5879;BME280;2965;42.640;23.370;2023-04-07T14:30:52;94395.28;;;7.16;69.40
5879;BME280;2965;42.640;23.370;2023-04-07T14:33:21;94399.69;;;7.07;72.57
5879;BME280;2965;42.640;23.370;2023-04-07T14:35:47;94404.56;;;7.02;72.11
5879;BME280;2965;42.640;23.370;2023-04-07T14:38:13;94407.66;;;6.90;73.81
5879;BME280;2965;42.640;23.370;2023-04-07T14:40:39;94402.94;;;6.77;75.91
5879;BME280;2965;42.640;23.370;2023-04-07T14:43:05;94404.25;;;6.97;75.09
5879;BME280;2965;42.640;23.370;2023-04-07T14:45:32;94401.47;;;6.99;76.16
5879;BME280;2965;42.640;23.370;2023-04-07T14:47:57;94406.06;;;7.05;75.84
5879;BME280;2965;42.640;23.370;2023-04-07T14:50:22;94403.44;;;7.13;75.48
5879;BME280;2965;42.640;23.370;2023-04-07T14:52:48;94407.34;;;7.17;75.22
5879;BME280;2965;42.640;23.370;2023-04-07T14:55:14;94419.06;;;6.97;77.06
5879;BME280;2965;42.640;23.370;2023-04-07T14:57:39;94414.84;;;6.88;78.54
5879;BME280;2965;42.640;23.370;2023-04-07T15:00:05;94416.13;;;6.83;76.69
5879;BME280;2965;42.640;23.370;2023-04-07T15:02:32;94418.41;;;6.87;77.68
5879;BME280;2965;42.640;23.370;2023-04-07T15:04:57;94420.19;;;7.11;77.10
5879;BME280;2965;42.640;23.370;2023-04-07T15:07:23;94420.00;;;7.28;75.76
5879;BME280;2965;42.640;23.370;2023-04-07T15:09:49;94417.00;;;7.48;76.84
5879;BME280;2965;42.640;23.370;2023-04-07T15:12:14;94432.94;;;7.61;74.95
5879;BME280;2965;42.640;23.370;2023-04-07T15:14:40;94424.03;;;7.39;74.04
5879;BME280;2965;42.640;23.370;2023-04-07T15:17:05;94419.81;;;7.30;75.42
5879;BME280;2965;42.640;23.370;2023-04-07T15:19:30;94428.78;;;7.19;76.79
5879;BME280;2965;42.640;23.370;2023-04-07T15:21:56;94429.78;;;6.94;77.55
5879;BME280;2965;42.640;23.370;2023-04-07T15:24:21;94440.84;;;6.88;79.05
5879;BME280;2965;42.640;23.370;2023-04-07T15:26:47;94433.69;;;6.73;80.42
5879;BME280;2965;42.640;23.370;2023-04-07T15:29:13;94434.00;;;6.70;81.30
5879;BME280;2965;42.640;23.370;2023-04-07T15:31:38;94435.94;;;6.60;82.34
5879;BME280;2965;42.640;23.370;2023-04-07T15:34:03;94435.94;;;6.68;83.25
5879;BME280;2965;42.640;23.370;2023-04-07T15:36:29;94436.09;;;6.58;82.69
5879;BME280;2965;42.640;23.370;2023-04-07T15:38:55;94434.63;;;6.48;84.19
5879;BME280;2965;42.640;23.370;2023-04-07T15:41:21;94434.31;;;6.51;84.05
5879;BME280;2965;42.640;23.370;2023-04-07T15:43:47;94434.47;;;6.57;83.21
5879;BME280;2965;42.640;23.370;2023-04-07T15:46:12;94443.25;;;6.56;83.07
5879;BME280;2965;42.640;23.370;2023-04-07T15:48:38;94436.56;;;6.54;82.52
5879;BME280;2965;42.640;23.370;2023-04-07T15:51:03;94441.28;;;6.42;83.21
5879;BME280;2965;42.640;23.370;2023-04-07T15:53:28;94435.91;;;6.36;84.60
5879;BME280;2965;42.640;23.370;2023-04-07T15:55:54;94455.69;;;6.28;85.60
5879;BME280;2965;42.640;23.370;2023-04-07T15:58:20;94453.75;;;6.30;85.82
5879;BME280;2965;42.640;23.370;2023-04-07T16:00:45;94447.44;;;6.33;86.74
5879;BME280;2965;42.640;23.370;2023-04-07T16:03:11;94455.19;;;6.25;87.45
5879;BME280;2965;42.640;23.370;2023-04-07T16:05:36;94447.91;;;6.37;87.90
5879;BME280;2965;42.640;23.370;2023-04-07T16:10:40;94469.16;;;6.32;84.21
5879;BME280;2965;42.640;23.370;2023-04-07T16:13:06;94472.91;;;6.29;82.60
5879;BME280;2965;42.640;23.370;2023-04-07T16:15:31;94465.75;;;6.31;82.94
5879;BME280;2965;42.640;23.370;2023-04-07T16:17:56;94479.09;;;6.37;82.99
5879;BME280;2965;42.640;23.370;2023-04-07T16:20:22;94477.78;;;6.32;84.75
5879;BME280;2965;42.640;23.370;2023-04-07T16:22:47;94484.59;;;6.25;84.28
5879;BME280;2965;42.640;23.370;2023-04-07T16:25:14;94475.91;;;6.09;85.13
5879;BME280;2965;42.640;23.370;2023-04-07T16:27:40;94485.50;;;6.08;85.73
5879;BME280;2965;42.640;23.370;2023-04-07T16:30:06;94484.81;;;6.06;86.03
5879;BME280;2965;42.640;23.370;2023-04-07T16:32:33;94493.72;;;5.95;87.13
5879;BME280;2965;42.640;23.370;2023-04-07T16:34:58;94490.31;;;5.95;87.78
5879;BME280;2965;42.640;23.370;2023-04-07T16:37:24;94491.63;;;5.99;87.55
5879;BME280;2965;42.640;23.370;2023-04-07T16:39:53;94494.16;;;5.91;87.54
5879;BME280;2965;42.640;23.370;2023-04-07T16:42:18;94499.06;;;5.94;88.08
5879;BME280;2965;42.640;23.370;2023-04-07T16:44:44;94500.16;;;5.91;89.73
5879;BME280;2965;42.640;23.370;2023-04-07T16:47:10;94503.22;;;5.87;90.04
5879;BME280;2965;42.640;23.370;2023-04-07T16:49:36;94505.66;;;5.88;90.57
5879;BME280;2965;42.640;23.370;2023-04-07T16:52:01;94509.94;;;5.97;89.55
5879;BME280;2965;42.640;23.370;2023-04-07T16:54:26;94506.44;;;5.89;89.42
5879;BME280;2965;42.640;23.370;2023-04-07T16:56:52;94509.38;;;5.86;88.78
5879;BME280;2965;42.640;23.370;2023-04-07T16:59:17;94509.06;;;5.89;90.83
5879;BME280;2965;42.640;23.370;2023-04-07T17:01:42;94514.22;;;5.80;88.77
5879;BME280;2965;42.640;23.370;2023-04-07T17:04:09;94516.50;;;5.83;92.44
5879;BME280;2965;42.640;23.370;2023-04-07T17:06:34;94524.09;;;6.03;92.16
5879;BME280;2965;42.640;23.370;2023-04-07T17:08:59;94523.69;;;5.90;89.78
5879;BME280;2965;42.640;23.370;2023-04-07T17:11:25;94527.56;;;5.86;89.55
5879;BME280;2965;42.640;23.370;2023-04-07T17:13:50;94527.03;;;5.82;89.05
5879;BME280;2965;42.640;23.370;2023-04-07T17:16:18;94532.41;;;5.89;91.92
5879;BME280;2965;42.640;23.370;2023-04-07T17:18:44;94527.84;;;5.82;89.92
5879;BME280;2965;42.640;23.370;2023-04-07T17:21:11;94531.25;;;5.83;89.60
5879;BME280;2965;42.640;23.370;2023-04-07T17:23:37;94536.31;;;5.85;89.30
5879;BME280;2965;42.640;23.370;2023-04-07T17:26:03;94537.22;;;5.75;90.73
5879;BME280;2965;42.640;23.370;2023-04-07T17:28:28;94543.72;;;5.79;90.31
5879;BME280;2965;42.640;23.370;2023-04-07T17:30:54;94548.63;;;5.82;88.82
5879;BME280;2965;42.640;23.370;2023-04-07T17:33:20;94551.69;;;5.78;88.66
5879;BME280;2965;42.640;23.370;2023-04-07T17:35:45;94550.50;;;5.72;89.06
5879;BME280;2965;42.640;23.370;2023-04-07T17:38:13;94554.09;;;5.79;91.79
5879;BME280;2965;42.640;23.370;2023-04-07T17:40:39;94555.31;;;5.85;92.49
5879;BME280;2965;42.640;23.370;2023-04-07T17:43:05;94554.84;;;5.90;91.27
5879;BME280;2965;42.640;23.370;2023-04-07T17:45:30;94553.81;;;5.82;90.23
5879;BME280;2965;42.640;23.370;2023-04-07T17:47:56;94561.91;;;5.79;93.83
5879;BME280;2965;42.640;23.370;2023-04-07T17:50:21;94560.44;;;5.77;92.90
5879;BME280;2965;42.640;23.370;2023-04-07T17:52:47;94568.75;;;5.89;95.01
5879;BME280;2965;42.640;23.370;2023-04-07T17:55:12;94567.56;;;6.01;95.50
5879;BME280;2965;42.640;23.370;2023-04-07T17:57:39;94578.06;;;6.17;93.34
5879;BME280;2965;42.640;23.370;2023-04-07T18:00:05;94572.75;;;6.27;90.17
5879;BME280;2965;42.640;23.370;2023-04-07T18:02:30;94574.28;;;6.38;88.96
5879;BME280;2965;42.640;23.370;2023-04-07T18:04:56;94578.88;;;6.52;87.89
5879;BME280;2965;42.640;23.370;2023-04-07T18:07:28;94587.03;;;6.65;87.26
5879;BME280;2965;42.640;23.370;2023-04-07T18:09:55;94588.66;;;6.66;85.41
5879;BME280;2965;42.640;23.370;2023-04-07T18:12:21;94588.69;;;6.74;84.52
5879;BME280;2965;42.640;23.370;2023-04-07T18:14:46;94597.13;;;6.76;85.71
5879;BME280;2965;42.640;23.370;2023-04-07T18:17:12;94593.91;;;6.82;85.57
5879;BME280;2965;42.640;23.370;2023-04-07T18:19:37;94602.34;;;6.76;84.00
5879;BME280;2965;42.640;23.370;2023-04-07T18:22:02;94600.72;;;6.75;83.22
5879;BME280;2965;42.640;23.370;2023-04-07T18:24:28;94599.72;;;6.76;83.58
5879;BME280;2965;42.640;23.370;2023-04-07T18:26:54;94611.06;;;6.67;85.54
5879;BME280;2965;42.640;23.370;2023-04-07T18:29:20;94608.13;;;6.62;88.73
5879;BME280;2965;42.640;23.370;2023-04-07T18:31:46;94605.84;;;6.51;91.56
5879;BME280;2965;42.640;23.370;2023-04-07T18:34:11;94607.69;;;6.32;94.84
5879;BME280;2965;42.640;23.370;2023-04-07T18:36:37;94607.50;;;6.00;100.00
5879;BME280;2965;42.640;23.370;2023-04-07T18:39:04;94609.19;;;5.91;100.00
5879;BME280;2965;42.640;23.370;2023-04-07T18:41:30;94613.69;;;5.81;100.00
5879;BME280;2965;42.640;23.370;2023-04-07T18:43:55;94613.16;;;5.77;100.00
5879;BME280;2965;42.640;23.370;2023-04-07T18:46:21;94615.09;;;5.75;100.00
5879;BME280;2965;42.640;23.370;2023-04-07T18:48:46;94617.16;;;5.90;100.00
5879;BME280;2965;42.640;23.370;2023-04-07T18:51:12;94621.00;;;5.86;100.00
5879;BME280;2965;42.640;23.370;2023-04-07T18:53:38;94609.81;;;5.85;100.00
5879;BME280;2965;42.640;23.370;2023-04-07T18:56:03;94613.78;;;5.71;100.00
5879;BME280;2965;42.640;23.370;2023-04-07T18:58:29;94610.16;;;5.64;100.00
5879;BME280;2965;42.640;23.370;2023-04-07T19:00:55;94613.34;;;5.58;100.00
5879;BME280;2965;42.640;23.370;2023-04-07T19:03:20;94617.31;;;5.70;100.00
5879;BME280;2965;42.640;23.370;2023-04-07T19:05:46;94607.25;;;5.67;100.00
5879;BME280;2965;42.640;23.370;2023-04-07T19:08:12;94614.72;;;5.70;100.00
5879;BME280;2965;42.640;23.370;2023-04-07T19:10:38;94615.03;;;5.67;100.00
5879;BME280;2965;42.640;23.370;2023-04-07T19:13:03;94609.19;;;5.65;100.00
5879;BME280;2965;42.640;23.370;2023-04-07T19:15:30;94606.50;;;5.57;100.00
5879;BME280;2965;42.640;23.370;2023-04-07T19:18:02;94606.50;;;5.57;100.00
5879;BME280;2965;42.640;23.370;2023-04-07T19:20:28;94608.81;;;5.60;100.00
5879;BME280;2965;42.640;23.370;2023-04-07T19:22:58;94607.84;;;5.61;100.00
5879;BME280;2965;42.640;23.370;2023-04-07T19:25:23;94609.84;;;5.67;100.00
5879;BME280;2965;42.640;23.370;2023-04-07T19:27:50;94609.47;;;5.62;100.00
5879;BME280;2965;42.640;23.370;2023-04-07T19:30:15;94602.22;;;5.48;100.00
5879;BME280;2965;42.640;23.370;2023-04-07T19:32:41;94600.59;;;5.47;100.00
5879;BME280;2965;42.640;23.370;2023-04-07T19:35:08;94605.50;;;5.50;100.00
5879;BME280;2965;42.640;23.370;2023-04-07T19:37:34;94608.53;;;5.63;100.00
5879;BME280;2965;42.640;23.370;2023-04-07T19:39:59;94608.66;;;5.62;100.00
5879;BME280;2965;42.640;23.370;2023-04-07T19:42:25;94599.09;;;5.62;100.00
5879;BME280;2965;42.640;23.370;2023-04-07T19:44:53;94600.97;;;5.52;100.00
5879;BME280;2965;42.640;23.370;2023-04-07T19:47:20;94601.66;;;5.54;100.00
5879;BME280;2965;42.640;23.370;2023-04-07T19:49:45;94601.66;;;5.54;100.00
5879;BME280;2965;42.640;23.370;2023-04-07T19:52:11;94604.38;;;5.52;100.00
5879;BME280;2965;42.640;23.370;2023-04-07T19:54:36;94606.50;;;5.57;100.00
5879;BME280;2965;42.640;23.370;2023-04-07T19:57:01;94601.66;;;5.54;100.00
5879;BME280;2965;42.640;23.370;2023-04-07T19:59:27;94601.25;;;5.67;100.00
5879;BME280;2965;42.640;23.370;2023-04-07T20:01:53;94607.97;;;5.77;100.00
5879;BME280;2965;42.640;23.370;2023-04-07T20:04:19;94609.13;;;5.83;100.00
5879;BME280;2965;42.640;23.370;2023-04-07T20:06:44;94603.59;;;5.78;100.00
5879;BME280;2965;42.640;23.370;2023-04-07T20:09:10;94606.63;;;5.73;100.00
5879;BME280;2965;42.640;23.370;2023-04-07T20:11:35;94602.06;;;5.67;100.00
5879;BME280;2965;42.640;23.370;2023-04-07T20:14:00;94608.78;;;5.78;100.00
5879;BME280;2965;42.640;23.370;2023-04-07T20:16:26;94610.63;;;5.86;100.00
5879;BME280;2965;42.640;23.370;2023-04-07T20:18:51;94604.25;;;5.98;100.00
5879;BME280;2965;42.640;23.370;2023-04-07T20:21:16;94609.13;;;6.01;100.00
5879;BME280;2965;42.640;23.370;2023-04-07T20:23:42;94610.63;;;6.03;100.00
5879;BME280;2965;42.640;23.370;2023-04-07T20:26:10;94609.34;;;6.07;100.00
5879;BME280;2965;42.640;23.370;2023-04-07T20:28:35;94613.84;;;6.05;100.00
5879;BME280;2965;42.640;23.370;2023-04-07T20:31:01;94623.59;;;6.03;100.00
5879;BME280;2965;42.640;23.370;2023-04-07T20:33:26;94621.69;;;6.14;100.00
5879;BME280;2965;42.640;23.370;2023-04-07T20:35:52;94617.66;;;6.11;100.00
5879;BME280;2965;42.640;23.370;2023-04-07T20:38:17;94634.50;;;6.07;100.00
5879;BME280;2965;42.640;23.370;2023-04-07T20:40:43;94627.97;;;6.03;100.00
5879;BME280;2965;42.640;23.370;2023-04-07T20:43:08;94627.66;;;6.06;100.00
5879;BME280;2965;42.640;23.370;2023-04-07T20:45:34;94619.44;;;5.93;100.00
5879;BME280;2965;42.640;23.370;2023-04-07T20:47:59;94612.19;;;5.96;100.00
5879;BME280;2965;42.640;23.370;2023-04-07T20:50:25;94616.84;;;5.93;100.00
5879;BME280;2965;42.640;23.370;2023-04-07T20:52:51;94618.78;;;5.91;100.00
5879;BME280;2965;42.640;23.370;2023-04-07T20:55:17;94610.28;;;5.80;100.00
5879;BME280;2965;42.640;23.370;2023-04-07T20:57:42;94618.06;;;5.80;100.00
